createdAt,value
2023-04-15T00:02:00.157Z,5.44
2023-04-15T00:04:28.933Z,5.38
2023-04-15T00:06:57.333Z,5.32
2023-04-15T00:09:25.719Z,5.26
2023-04-15T00:11:54.610Z,5.20
2023-04-15T00:14:22.803Z,5.15
2023-04-15T00:16:56.328Z,5.14
2023-04-15T00:19:25.499Z,5.09
2023-04-15T00:21:53.756Z,5.04
2023-04-15T00:24:22.191Z,5.04
2023-04-15T00:26:50.462Z,5.04
2023-04-15T00:29:19.309Z,5.03
2023-04-15T00:31:47.682Z,5.02
2023-04-15T00:34:15.862Z,5.02
2023-04-15T00:36:45.211Z,5.00
2023-04-15T00:39:13.751Z,5.00
2023-04-15T00:41:45.826Z,5.00
2023-04-15T00:44:14.529Z,5.03
2023-04-15T00:46:43.542Z,5.09
2023-04-15T00:49:13.334Z,5.12
2023-04-15T00:51:41.675Z,5.15
2023-04-15T00:54:09.984Z,5.16
2023-04-15T00:56:39.251Z,5.15
2023-04-15T00:59:08.312Z,5.12
2023-04-15T01:01:37.635Z,5.09
2023-04-15T01:04:07.106Z,5.04
2023-04-15T01:06:35.935Z,5.06
2023-04-15T01:09:04.326Z,5.10
2023-04-15T01:11:35.705Z,5.11
2023-04-15T01:14:04.374Z,5.11
2023-04-15T01:16:32.833Z,5.15
2023-04-15T01:19:01.537Z,5.24
2023-04-15T01:21:30.137Z,5.27
2023-04-15T01:23:59.129Z,5.26
2023-04-15T01:26:27.706Z,5.26
2023-04-15T01:28:56.524Z,5.25
2023-04-15T01:31:25.671Z,5.19
2023-04-15T01:33:53.997Z,5.11
2023-04-15T01:36:22.237Z,5.06
2023-04-15T01:38:55.654Z,5.00
2023-04-15T01:41:27.927Z,4.96
2023-04-15T01:43:56.759Z,4.96
2023-04-15T01:46:25.025Z,5.00
2023-04-15T01:48:54.945Z,5.06
2023-04-15T01:51:23.447Z,5.16
2023-04-15T01:53:52.518Z,5.21
2023-04-15T01:56:20.959Z,5.23
2023-04-15T01:58:49.513Z,5.22
2023-04-15T02:01:19.877Z,5.21
2023-04-15T02:03:48.775Z,5.22
2023-04-15T02:06:18.599Z,5.19
2023-04-15T02:08:46.996Z,5.16
2023-04-15T02:11:15.645Z,5.09
2023-04-15T02:13:43.976Z,5.03
2023-04-15T02:16:16.830Z,5.00
2023-04-15T02:18:46.116Z,4.97
2023-04-15T02:21:14.727Z,4.98
2023-04-15T02:23:44.162Z,5.02
2023-04-15T02:26:14.866Z,5.03
2023-04-15T02:28:43.302Z,5.05
2023-04-15T02:31:11.516Z,5.03
2023-04-15T02:33:39.747Z,5.00
2023-04-15T02:36:08.630Z,4.92
2023-04-15T02:38:38.370Z,4.89
2023-04-15T02:41:06.664Z,4.89
2023-04-15T02:43:35.741Z,4.86
2023-04-15T02:46:04.231Z,4.83
2023-04-15T02:48:32.577Z,4.77
2023-04-15T02:51:13.494Z,4.71
2023-04-15T02:53:41.770Z,4.71
2023-04-15T02:56:10.069Z,4.66
2023-04-15T02:58:38.556Z,4.68
2023-04-15T03:01:08.939Z,4.66
2023-04-15T03:03:37.505Z,4.55
2023-04-15T03:06:05.974Z,4.47
2023-04-15T03:08:34.281Z,4.40
2023-04-15T03:11:02.877Z,4.36
2023-04-15T03:13:31.399Z,4.32
2023-04-15T03:16:00.259Z,4.29
2023-04-15T03:18:29.497Z,4.22
2023-04-15T03:21:01.526Z,4.15
2023-04-15T03:23:31.436Z,4.05
2023-04-15T03:26:02.287Z,3.90
2023-04-15T03:28:32.796Z,3.76
2023-04-15T03:31:01.293Z,3.59
2023-04-15T03:33:29.770Z,3.47
2023-04-15T03:35:58.083Z,3.43
2023-04-15T03:38:26.427Z,3.30
2023-04-15T03:40:54.758Z,3.21
2023-04-15T03:43:22.971Z,3.12
2023-04-15T03:45:51.379Z,3.07
2023-04-15T03:48:19.688Z,2.97
2023-04-15T03:50:48.530Z,2.88
2023-04-15T03:53:16.737Z,2.85
2023-04-15T03:55:45.119Z,2.87
2023-04-15T03:58:13.514Z,2.92
2023-04-15T04:00:42.652Z,2.90
2023-04-15T04:03:11.119Z,2.87
2023-04-15T04:05:41.591Z,2.81
2023-04-15T04:08:10.003Z,2.77
2023-04-15T04:10:38.253Z,2.74
2023-04-15T04:13:06.468Z,2.74
2023-04-15T04:15:34.798Z,2.78
2023-04-15T04:18:03.406Z,2.85
2023-04-15T04:20:32.299Z,2.96
2023-04-15T04:23:00.795Z,3.07
2023-04-15T04:25:29.052Z,3.21
2023-04-15T04:27:57.290Z,3.38
2023-04-15T04:30:25.525Z,3.54
2023-04-15T04:32:53.908Z,3.69
2023-04-15T04:35:22.866Z,3.83
2023-04-15T04:37:52.512Z,4.01
2023-04-15T04:40:20.907Z,4.20
2023-04-15T04:42:49.222Z,4.32
2023-04-15T04:45:17.606Z,4.38
2023-04-15T04:47:46.812Z,4.42
2023-04-15T04:50:15.117Z,4.50
2023-04-15T04:52:43.273Z,4.56
2023-04-15T04:55:11.849Z,4.69
2023-04-15T04:57:40.156Z,4.78
2023-04-15T05:00:09.188Z,4.85
2023-04-15T05:02:37.804Z,4.92
2023-04-15T05:05:06.867Z,5.04
2023-04-15T05:07:35.059Z,5.18
2023-04-15T05:10:03.755Z,5.26
2023-04-15T05:12:32.472Z,5.25
2023-04-15T05:15:00.745Z,5.28
2023-04-15T05:17:31.309Z,5.30
2023-04-15T05:19:59.633Z,5.37
2023-04-15T05:22:28.071Z,5.42
2023-04-15T05:24:56.507Z,5.46
2023-04-15T05:27:25.162Z,5.52
2023-04-15T05:29:53.494Z,5.60
2023-04-15T05:32:21.775Z,5.73
2023-04-15T05:34:50.058Z,5.92
2023-04-15T05:37:20.952Z,6.15
2023-04-15T05:39:49.393Z,6.33
2023-04-15T05:42:17.830Z,6.43
2023-04-15T05:44:46.336Z,6.56
2023-04-15T05:47:14.562Z,6.69
2023-04-15T05:49:42.829Z,6.78
2023-04-15T05:52:11.043Z,6.90
2023-04-15T05:54:39.344Z,6.93
2023-04-15T05:57:08.037Z,6.99
2023-04-15T05:59:36.411Z,7.02
2023-04-15T06:02:04.795Z,7.09
2023-04-15T06:04:33.232Z,7.20
2023-04-15T06:07:01.600Z,7.06
2023-04-15T06:09:29.782Z,7.20
2023-04-15T06:11:59.031Z,7.25
2023-04-15T06:14:27.550Z,7.38
2023-04-15T06:16:55.910Z,7.44
2023-04-15T06:19:24.825Z,7.40
2023-04-15T06:21:53.047Z,7.35
2023-04-15T06:24:21.701Z,7.27
2023-04-15T06:26:50.038Z,7.27
2023-04-15T06:29:18.269Z,7.42
2023-04-15T06:31:47.986Z,7.49
2023-04-15T06:34:16.458Z,7.63
2023-04-15T06:36:44.797Z,7.78
2023-04-15T06:39:13.033Z,7.83
2023-04-15T06:41:41.688Z,8.07
2023-04-15T06:44:09.933Z,8.21
2023-04-15T06:46:38.310Z,8.56
2023-04-15T06:49:06.531Z,8.79
2023-04-15T06:51:36.065Z,9.02
2023-04-15T06:54:06.238Z,9.39
2023-04-15T06:56:35.008Z,9.81
2023-04-15T06:59:03.806Z,10.01
2023-04-15T07:01:32.113Z,10.01
2023-04-15T07:04:00.626Z,9.82
2023-04-15T07:06:29.058Z,9.78
2023-04-15T07:08:57.601Z,9.69
2023-04-15T07:11:28.991Z,9.76
2023-04-15T07:13:58.373Z,10.18
2023-04-15T07:16:28.632Z,10.44
2023-04-15T07:18:58.395Z,10.85
2023-04-15T07:21:27.834Z,11.11
2023-04-15T07:23:56.197Z,10.94
2023-04-15T07:26:24.866Z,11.07
2023-04-15T07:28:53.203Z,11.54
2023-04-15T07:31:21.536Z,12.52
2023-04-15T07:33:49.840Z,13.30
2023-04-15T07:36:18.103Z,13.79
2023-04-15T07:38:46.331Z,14.55
2023-04-15T07:41:14.566Z,15.03
2023-04-15T07:43:43.255Z,14.43
2023-04-15T07:46:11.716Z,13.71
2023-04-15T07:48:40.008Z,13.39
2023-04-15T07:51:08.784Z,13.19
2023-04-15T07:53:37.407Z,12.86
2023-04-15T07:56:05.856Z,12.63
2023-04-15T07:58:34.111Z,12.62
2023-04-15T08:01:02.422Z,12.52
2023-04-15T08:03:30.992Z,12.39
2023-04-15T08:05:59.665Z,12.64
2023-04-15T08:08:27.864Z,13.05
2023-04-15T08:10:56.728Z,13.90
2023-04-15T08:13:24.980Z,14.87
2023-04-15T08:16:13.166Z,15.84
2023-04-15T08:18:41.457Z,16.14
2023-04-15T08:21:10.388Z,16.77
2023-04-15T08:23:39.318Z,17.70
2023-04-15T08:26:08.869Z,18.21
2023-04-15T08:28:40.804Z,18.70
2023-04-15T08:31:09.837Z,18.66
2023-04-15T08:33:38.239Z,18.53
2023-04-15T08:36:07.697Z,17.82
2023-04-15T08:38:36.542Z,18.46
2023-04-15T08:41:07.937Z,18.38
2023-04-15T08:43:37.971Z,18.49
2023-04-15T08:46:06.597Z,18.95
2023-04-15T08:48:38.577Z,19.57
2023-04-15T08:51:07.240Z,19.91
2023-04-15T08:53:35.821Z,20.02
2023-04-15T08:56:06.127Z,20.13
2023-04-15T08:58:35.724Z,20.59
2023-04-15T09:01:04.151Z,21.07
2023-04-15T09:03:32.728Z,21.39
2023-04-15T09:06:01.087Z,21.05
2023-04-15T09:08:29.256Z,20.37
2023-04-15T09:10:57.427Z,20.45
2023-04-15T09:13:25.668Z,20.44
2023-04-15T09:15:53.935Z,20.30
2023-04-15T09:18:29.890Z,19.82
2023-04-15T09:21:05.681Z,19.34
2023-04-15T09:23:34.325Z,18.55
2023-04-15T09:26:03.424Z,18.05
2023-04-15T09:28:32.068Z,17.64
2023-04-15T09:31:01.363Z,17.18
2023-04-15T09:33:30.120Z,17.02
2023-04-15T09:36:02.668Z,16.57
2023-04-15T09:38:31.194Z,15.98
2023-04-15T09:40:59.589Z,15.60
2023-04-15T09:43:40.694Z,15.37
2023-04-15T09:46:09.021Z,14.99
2023-04-15T09:48:37.329Z,14.65
2023-04-15T09:51:05.693Z,14.52
2023-04-15T09:53:35.052Z,14.47
2023-04-15T09:56:03.579Z,14.45
2023-04-15T09:58:33.485Z,14.27
2023-04-15T10:01:03.752Z,14.20
2023-04-15T10:03:34.592Z,14.19
2023-04-15T10:06:04.099Z,14.63
2023-04-15T10:08:33.815Z,15.15
2023-04-15T10:11:02.551Z,14.94
2023-04-15T10:13:37.188Z,14.70
2023-04-15T10:16:12.824Z,14.80
2023-04-15T10:18:43.266Z,14.93
2023-04-15T10:21:11.536Z,15.21
2023-04-15T10:23:40.117Z,15.47
2023-04-15T10:26:08.544Z,15.94
2023-04-15T10:28:37.235Z,16.26
2023-04-15T10:31:06.283Z,16.18
2023-04-15T10:33:35.353Z,16.16
2023-04-15T10:36:03.697Z,16.37
2023-04-15T10:38:36.030Z,16.27
2023-04-15T10:41:14.044Z,16.19
2023-04-15T10:43:48.210Z,16.23
2023-04-15T10:46:38.111Z,16.14
2023-04-15T10:49:13.451Z,16.44
2023-04-15T10:51:43.178Z,17.07
2023-04-15T10:54:15.641Z,17.49
2023-04-15T10:56:44.769Z,17.72
2023-04-15T10:59:13.068Z,17.88
2023-04-15T11:01:52.091Z,17.91
2023-04-15T11:04:40.454Z,17.87
2023-04-15T11:07:10.138Z,17.68
2023-04-15T11:09:38.269Z,17.35
2023-04-15T11:12:10.598Z,16.94
2023-04-15T11:14:40.469Z,16.83
2023-04-15T11:17:08.729Z,16.45
2023-04-15T11:19:39.794Z,16.59
2023-04-15T11:22:11.144Z,16.55
2023-04-15T11:24:52.213Z,16.43
2023-04-15T11:27:23.688Z,16.05
2023-04-15T11:29:53.252Z,15.95
2023-04-15T11:32:21.924Z,16.05
2023-04-15T11:34:52.069Z,16.18
2023-04-15T11:37:27.906Z,16.35
2023-04-15T11:39:56.205Z,15.93
2023-04-15T11:42:24.335Z,15.87
2023-04-15T11:45:06.689Z,16.08
2023-04-15T11:47:35.341Z,16.16
2023-04-15T11:50:18.624Z,15.93
2023-04-15T11:53:00.020Z,15.65
2023-04-15T11:55:28.347Z,15.55
2023-04-15T11:58:09.509Z,15.52
2023-04-15T12:00:38.317Z,15.35
2023-04-15T12:03:26.616Z,15.25
2023-04-15T12:06:12.056Z,15.09
2023-04-15T12:08:59.322Z,15.03
2023-04-15T12:11:27.602Z,14.92
2023-04-15T12:14:06.545Z,14.85
2023-04-15T12:16:37.210Z,14.82
2023-04-15T12:19:23.484Z,14.98
2023-04-15T12:21:53.217Z,14.96
2023-04-15T12:24:24.828Z,15.01
2023-04-15T12:26:54.324Z,14.98
2023-04-15T12:29:26.362Z,15.18
2023-04-15T12:31:59.313Z,15.39
2023-04-15T12:34:31.702Z,15.78
2023-04-15T12:37:01.249Z,15.96
2023-04-15T12:39:32.221Z,15.89
2023-04-15T12:42:01.764Z,15.75
2023-04-15T12:44:30.117Z,15.16
2023-04-15T12:46:58.395Z,15.12
2023-04-15T12:49:27.193Z,15.09
2023-04-15T12:51:57.460Z,15.05
2023-04-15T12:54:25.801Z,14.91
2023-04-15T12:56:54.791Z,14.80
2023-04-15T12:59:24.221Z,14.81
2023-04-15T13:01:53.734Z,14.86
2023-04-15T13:04:22.604Z,14.89
2023-04-15T13:06:51.480Z,14.97
2023-04-15T13:09:19.796Z,15.07
2023-04-15T13:11:48.048Z,15.07
2023-04-15T13:14:16.513Z,15.05
2023-04-15T13:16:44.972Z,15.03
2023-04-15T13:19:13.100Z,15.00
2023-04-15T13:21:41.558Z,14.89
2023-04-15T13:24:10.007Z,14.68
2023-04-15T13:26:38.272Z,14.45
2023-04-15T13:29:06.911Z,14.05
2023-04-15T13:31:35.124Z,13.99
2023-04-15T13:34:03.700Z,14.29
2023-04-15T13:36:32.198Z,14.40
2023-04-15T13:39:00.734Z,14.43
2023-04-15T13:41:29.274Z,14.44
2023-04-15T13:43:58.562Z,14.37
2023-04-15T13:46:26.916Z,14.34
2023-04-15T13:48:55.118Z,14.50
2023-04-15T13:51:23.235Z,14.47
2023-04-15T13:53:51.700Z,14.25
2023-04-15T13:56:20.047Z,14.08
2023-04-15T13:58:48.513Z,13.95
2023-04-15T14:01:16.870Z,13.88
2023-04-15T14:03:45.349Z,13.79
2023-04-15T14:06:13.750Z,13.81
2023-04-15T14:08:42.004Z,13.83
2023-04-15T14:11:10.374Z,13.81
2023-04-15T14:13:38.636Z,13.69
2023-04-15T14:16:06.945Z,13.58
2023-04-15T14:18:35.397Z,13.51
2023-04-15T14:21:03.922Z,13.43
2023-04-15T14:23:32.177Z,13.32
2023-04-15T14:26:00.484Z,13.25
2023-04-15T14:28:29.374Z,13.17
2023-04-15T14:30:57.693Z,13.06
2023-04-15T14:33:26.047Z,12.97
2023-04-15T14:35:54.263Z,12.87
2023-04-15T14:38:22.851Z,12.74
2023-04-15T14:40:51.185Z,12.65
2023-04-15T14:43:19.484Z,12.56
2023-04-15T14:45:48.003Z,12.51
2023-04-15T14:48:16.475Z,12.46
2023-04-15T14:50:44.658Z,12.39
2023-04-15T14:53:12.852Z,12.36
2023-04-15T14:55:41.358Z,12.31
2023-04-15T14:58:09.694Z,12.27
2023-04-15T15:00:42.232Z,12.26
2023-04-15T15:03:14.809Z,12.26
2023-04-15T15:05:44.926Z,12.24
2023-04-15T15:08:13.897Z,12.23
2023-04-15T15:10:49.562Z,12.25
2023-04-15T15:13:19.190Z,12.28
2023-04-15T15:15:49.690Z,12.28
2023-04-15T15:18:19.385Z,12.26
2023-04-15T15:20:48.244Z,12.26
2023-04-15T15:23:16.610Z,12.25
2023-04-15T15:25:45.932Z,12.22
2023-04-15T15:28:14.348Z,12.19
2023-04-15T15:30:42.739Z,12.26
2023-04-15T15:33:10.959Z,12.38
2023-04-15T15:35:39.456Z,12.50
2023-04-15T15:38:07.825Z,12.62
2023-04-15T15:40:36.071Z,12.75
2023-04-15T15:43:04.512Z,12.88
2023-04-15T15:45:32.813Z,12.98
2023-04-15T15:48:01.767Z,13.09
2023-04-15T15:50:30.145Z,13.17
2023-04-15T15:52:58.972Z,13.21
2023-04-15T15:55:27.475Z,13.23
2023-04-15T15:57:55.953Z,13.21
2023-04-15T16:00:24.521Z,13.18
2023-04-15T16:03:06.688Z,13.13
2023-04-15T16:05:36.632Z,13.06
2023-04-15T16:08:05.261Z,12.98
2023-04-15T16:10:33.574Z,12.85
2023-04-15T16:13:02.266Z,12.69
2023-04-15T16:15:30.653Z,12.55
2023-04-15T16:17:59.014Z,12.43
2023-04-15T16:20:28.945Z,12.33
2023-04-15T16:22:58.454Z,12.23
2023-04-15T16:25:26.854Z,12.13
2023-04-15T16:28:05.455Z,12.04
2023-04-15T16:30:40.643Z,11.96
2023-04-15T16:33:09.844Z,11.88
2023-04-15T16:35:38.093Z,11.81
2023-04-15T16:38:06.720Z,11.75
2023-04-15T16:40:35.125Z,11.69
2023-04-15T16:43:03.606Z,11.64
2023-04-15T16:45:31.972Z,11.54
2023-04-15T16:48:00.517Z,11.41
2023-04-15T16:50:28.908Z,11.32
2023-04-15T16:52:57.130Z,11.18
2023-04-15T16:55:25.540Z,11.06
2023-04-15T16:58:02.772Z,10.89
2023-04-15T17:00:32.351Z,10.72
2023-04-15T17:03:01.354Z,10.54
2023-04-15T17:05:31.060Z,10.35
2023-04-15T17:07:59.419Z,10.18
2023-04-15T17:10:27.980Z,10.01
2023-04-15T17:12:56.831Z,9.87
2023-04-15T17:15:25.138Z,9.71
2023-04-15T17:17:53.768Z,9.55
2023-04-15T17:20:22.119Z,9.38
2023-04-15T17:22:50.434Z,9.26
2023-04-15T17:25:19.552Z,9.11
2023-04-15T17:27:47.865Z,9.00
2023-04-15T17:30:16.353Z,8.89
2023-04-15T17:32:44.701Z,8.76
2023-04-15T17:35:13.101Z,8.63
2023-04-15T17:37:41.580Z,8.51
2023-04-15T17:40:10.056Z,8.39
2023-04-15T17:42:38.506Z,8.26
2023-04-15T17:45:07.080Z,8.13
2023-04-15T17:47:35.500Z,8.01
2023-04-15T17:50:04.011Z,7.89
2023-04-15T17:52:32.328Z,7.78
2023-04-15T17:55:00.773Z,7.69
2023-04-15T17:57:29.047Z,7.57
2023-04-15T17:59:57.404Z,7.48
2023-04-15T18:02:25.867Z,7.36
2023-04-15T18:04:54.455Z,7.21
2023-04-15T18:07:22.722Z,7.04
2023-04-15T18:09:51.185Z,6.91
2023-04-15T18:12:19.473Z,6.78
2023-04-15T18:14:47.885Z,6.65
2023-04-15T18:17:16.443Z,6.52
2023-04-15T18:19:46.063Z,6.38
2023-04-15T18:22:14.176Z,6.21
2023-04-15T18:24:42.359Z,6.07
2023-04-15T18:27:10.718Z,5.94
2023-04-15T18:29:39.106Z,5.81
2023-04-15T18:32:07.436Z,5.69
2023-04-15T18:34:35.805Z,5.58
2023-04-15T18:37:05.477Z,5.45
2023-04-15T18:39:33.713Z,5.34
2023-04-15T18:42:02.215Z,5.25
2023-04-15T18:44:30.650Z,5.14
2023-04-15T18:46:58.956Z,5.04
2023-04-15T18:49:27.592Z,4.95
2023-04-15T18:51:55.928Z,4.84
2023-04-15T18:54:24.192Z,4.74
2023-04-15T18:56:52.461Z,4.66
2023-04-15T18:59:28.860Z,4.58
2023-04-15T19:01:59.233Z,4.49
2023-04-15T19:04:29.330Z,4.45
2023-04-15T19:06:59.348Z,4.40
2023-04-15T19:09:28.947Z,4.41
2023-04-15T19:11:57.755Z,4.46
2023-04-15T19:14:26.129Z,4.49
2023-04-15T19:16:54.610Z,4.48
2023-04-15T19:19:22.860Z,4.45
2023-04-15T19:21:51.262Z,4.40
2023-04-15T19:24:20.123Z,4.35
2023-04-15T19:26:49.726Z,4.29
2023-04-15T19:29:18.422Z,4.24
2023-04-15T19:31:46.788Z,4.15
2023-04-15T19:34:15.075Z,4.06
2023-04-15T19:36:43.400Z,4.00
2023-04-15T19:39:11.788Z,3.92
2023-04-15T19:41:40.112Z,3.86
2023-04-15T19:44:08.492Z,3.78
2023-04-15T19:46:37.089Z,3.69
2023-04-15T19:49:05.931Z,3.58
2023-04-15T19:51:34.509Z,3.50
2023-04-15T19:54:02.770Z,3.42
2023-04-15T19:56:32.919Z,3.37
2023-04-15T19:59:02.852Z,3.32
2023-04-15T20:01:31.187Z,3.27
2023-04-15T20:03:59.883Z,3.20
2023-04-15T20:06:28.782Z,3.12
2023-04-15T20:08:58.362Z,3.06
2023-04-15T20:12:45.636Z,3.02
2023-04-15T20:14:17.940Z,3.00
2023-04-15T20:16:46.248Z,3.00
2023-04-15T20:19:14.842Z,3.04
2023-04-15T20:21:43.186Z,3.08
2023-04-15T20:24:11.542Z,3.10
2023-04-15T20:26:39.864Z,3.12
2023-04-15T20:29:08.445Z,3.12
2023-04-15T20:31:36.990Z,3.10
2023-04-15T20:34:05.260Z,3.06
2023-04-15T20:36:33.654Z,3.02
2023-04-15T20:39:01.905Z,3.01
2023-04-15T20:41:30.274Z,2.96
2023-04-15T20:43:58.547Z,2.92
2023-04-15T20:46:27.695Z,2.87
2023-04-15T20:48:56.518Z,2.82
2023-04-15T20:51:24.968Z,2.77
2023-04-15T20:53:53.323Z,2.72
2023-04-15T20:56:21.542Z,2.65
2023-04-15T20:58:49.765Z,2.62
2023-04-15T21:01:18.013Z,2.60
2023-04-15T21:03:46.472Z,2.62
2023-04-15T21:06:14.881Z,2.65
2023-04-15T21:08:43.109Z,2.69
2023-04-15T21:11:11.290Z,2.75
2023-04-15T21:13:39.577Z,2.83
2023-04-15T21:16:07.876Z,2.92
2023-04-15T21:18:36.173Z,3.03
2023-04-15T21:21:04.538Z,3.08
2023-04-15T21:23:36.081Z,3.14
2023-04-15T21:26:04.402Z,3.14
2023-04-15T21:28:33.346Z,3.10
2023-04-15T21:31:01.619Z,3.03
2023-04-15T21:33:29.929Z,2.97
2023-04-15T21:35:58.321Z,2.89
2023-04-15T21:38:26.562Z,2.81
2023-04-15T21:40:55.354Z,2.72
2023-04-15T21:43:25.823Z,2.61
2023-04-15T21:46:23.469Z,2.53
2023-04-15T21:48:42.304Z,2.43
2023-04-15T21:51:10.559Z,2.34
2023-04-15T21:53:39.326Z,2.23
2023-04-15T21:56:10.543Z,2.15
2023-04-15T21:58:38.767Z,2.10
2023-04-15T22:01:07.030Z,2.06
2023-04-15T22:03:35.676Z,2.08
2023-04-15T22:06:04.189Z,2.11
2023-04-15T22:08:41.222Z,2.11
2023-04-15T22:11:26.855Z,2.11
2023-04-15T22:13:56.965Z,2.11
2023-04-15T22:16:26.533Z,2.11
2023-04-15T22:18:55.879Z,2.08
2023-04-15T22:21:24.198Z,2.06
2023-04-15T22:23:53.030Z,2.02
2023-04-15T22:26:41.412Z,1.95
2023-04-15T22:29:10.083Z,1.86
2023-04-15T22:31:38.465Z,1.79
2023-04-15T22:34:06.900Z,1.72
2023-04-15T22:36:35.302Z,1.64
2023-04-15T22:39:03.769Z,1.57
2023-04-15T22:41:32.260Z,1.49
2023-04-15T22:44:00.555Z,1.42
2023-04-15T22:46:28.809Z,1.35
2023-04-15T22:48:57.284Z,1.28
2023-04-15T22:51:28.156Z,1.21
2023-04-15T22:53:56.572Z,1.16
2023-04-15T22:56:24.933Z,1.17
2023-04-15T22:58:53.382Z,1.18
2023-04-15T23:01:21.671Z,1.23
2023-04-15T23:03:56.304Z,1.31
2023-04-15T23:06:27.887Z,1.41
2023-04-15T23:08:56.157Z,1.44
2023-04-15T23:11:24.427Z,1.44
2023-04-15T23:13:53.286Z,1.47
2023-04-15T23:16:21.982Z,1.47
2023-04-15T23:18:50.520Z,1.46
2023-04-15T23:21:18.783Z,1.43
2023-04-15T23:23:47.511Z,1.38
2023-04-15T23:26:15.783Z,1.32
2023-04-15T23:28:44.050Z,1.24
2023-04-15T23:31:12.474Z,1.15
2023-04-15T23:33:40.778Z,1.07
2023-04-15T23:36:09.115Z,1.02
2023-04-15T23:38:37.664Z,0.96
2023-04-15T23:41:06.287Z,0.90
2023-04-15T23:43:34.522Z,0.87
2023-04-15T23:46:02.946Z,0.80
2023-04-15T23:48:31.387Z,0.76
2023-04-15T23:51:00.708Z,0.74
2023-04-15T23:53:30.030Z,0.75
2023-04-15T23:55:58.176Z,0.80
2023-04-15T23:58:26.544Z,0.85
